YMH weather

Mary's Harbour Airport
Mary's Harbour, Newfoundland and Labrador, Canada

Public forecast

Using degrees Celsius for public forecast. Weather courtesy of forecast.io.

METAR (pilot weather report)

Retrieved 2019/09/16 07:00 UTC (38 minutes ago):

CYMH 160700Z AUTO 00000KT 9SM BKN019 OVC042 11/10 A2971 RMK SLP062

TAF (pilot weather forecast)

Retrieved 2019/09/16 09:39 UTC (0 seconds ago):

TAF CYMH 160838Z 1609/1621 02007KT 2SM -RA BR BKN005 OVC010 TEMPO 1609/1614 6SM -RA BR OVC010 FM161400 36012KT 4SM -RA BR OVC015 BECMG 1616/1618 36015G25KT RMK FCST BASED ON AUTO OBS. NXT FCST BY 161400Z